createdAt,value
2018-08-20T00:00:10.010Z,60.50
2018-08-20T00:01:10.018Z,60.63
2018-08-20T00:02:10.029Z,60.60
2018-08-20T00:03:10.034Z,60.69
2018-08-20T00:04:10.037Z,60.60
2018-08-20T00:05:10.038Z,60.79
2018-08-20T00:06:10.041Z,59.86
2018-08-20T00:07:20.390Z,59.38
2018-08-20T00:09:04.461Z,60.21
2018-08-20T00:10:04.437Z,60.60
2018-08-20T00:11:04.452Z,60.79
2018-08-20T00:12:04.456Z,60.79
2018-08-20T00:13:04.460Z,60.21
2018-08-20T00:14:04.469Z,60.11
2018-08-20T00:15:04.465Z,59.92
2018-08-20T00:16:04.471Z,60.21
2018-08-20T00:17:04.472Z,60.11
2018-08-20T00:18:04.475Z,60.60
2018-08-20T00:19:04.486Z,60.79
2018-08-20T00:20:04.500Z,60.99
2018-08-20T00:21:04.500Z,60.60
2018-08-20T00:22:04.501Z,60.99
2018-08-20T00:23:04.500Z,60.69
2018-08-20T00:24:04.510Z,60.31
2018-08-20T00:25:04.510Z,59.53
2018-08-20T00:26:04.522Z,60.79
2018-08-20T00:27:04.521Z,61.54
2018-08-20T00:28:04.527Z,60.60
2018-08-20T00:29:04.536Z,60.50
2018-08-20T00:30:04.544Z,61.54
2018-08-20T00:31:04.556Z,61.47
2018-08-20T00:32:04.580Z,61.18
2018-08-20T00:33:04.544Z,60.79
2018-08-20T00:34:04.564Z,60.31
2018-08-20T00:35:04.576Z,60.79
2018-08-20T00:36:04.568Z,60.21
2018-08-20T00:37:04.566Z,60.60
2018-08-20T00:38:04.578Z,60.05
2018-08-20T00:39:04.576Z,60.41
2018-08-20T00:40:04.597Z,60.89
2018-08-20T00:41:04.582Z,60.60
2018-08-20T00:42:04.591Z,59.92
2018-08-20T00:43:04.596Z,60.79
2018-08-20T00:44:04.598Z,60.60
2018-08-20T00:45:04.620Z,60.69
2018-08-20T00:46:04.615Z,61.54
2018-08-20T00:47:04.623Z,60.60
2018-08-20T00:48:04.621Z,60.21
2018-08-20T00:49:04.639Z,59.63
2018-08-20T00:50:04.640Z,60.21
2018-08-20T00:51:04.645Z,60.86
2018-08-20T00:52:04.639Z,61.44
2018-08-20T00:53:04.635Z,61.15
2018-08-20T00:54:04.645Z,61.15
2018-08-20T00:55:04.649Z,60.60
2018-08-20T00:56:04.654Z,60.21
2018-08-20T00:57:04.656Z,59.44
2018-08-20T00:58:04.667Z,60.21
2018-08-20T00:59:04.670Z,60.21
2018-08-20T01:00:04.671Z,59.73
2018-08-20T01:01:04.695Z,59.92
2018-08-20T01:02:04.701Z,59.83
2018-08-20T01:03:04.688Z,59.89
2018-08-20T01:04:04.694Z,59.53
2018-08-20T01:05:04.706Z,60.02
2018-08-20T01:06:04.717Z,59.25
2018-08-20T01:07:04.707Z,60.21
2018-08-20T01:08:04.748Z,60.21
2018-08-20T01:09:04.718Z,60.41
2018-08-20T01:10:04.727Z,60.50
2018-08-20T01:11:04.720Z,60.21
2018-08-20T01:12:04.749Z,60.47
2018-08-20T01:13:04.737Z,60.67
2018-08-20T01:14:04.756Z,60.11
2018-08-20T01:15:04.748Z,60.09
2018-08-20T01:16:04.755Z,60.18
2018-08-20T01:17:04.778Z,60.47
2018-08-20T01:18:04.750Z,60.50
2018-08-20T01:19:04.756Z,60.02
2018-08-20T01:20:04.759Z,59.53
2018-08-20T01:21:04.769Z,59.92
2018-08-20T01:22:04.766Z,60.18
2018-08-20T01:23:04.808Z,60.38
2018-08-20T01:24:04.789Z,60.31
2018-08-20T01:25:04.783Z,59.34
2018-08-20T01:26:04.795Z,60.28
2018-08-20T01:27:04.802Z,60.67
2018-08-20T01:28:04.799Z,60.47
2018-08-20T01:29:04.812Z,61.05
2018-08-20T01:30:04.813Z,61.73
2018-08-20T01:31:04.807Z,61.80
2018-08-20T01:32:04.814Z,61.25
2018-08-20T01:33:04.822Z,60.31
2018-08-20T01:34:04.820Z,60.41
2018-08-20T01:35:04.830Z,60.09
2018-08-20T01:36:04.829Z,60.47
2018-08-20T01:37:04.835Z,60.69
2018-08-20T01:38:04.839Z,60.38
2018-08-20T01:39:04.870Z,60.67
2018-08-20T01:40:04.858Z,60.47
2018-08-20T01:41:04.858Z,60.96
2018-08-20T01:42:04.859Z,61.05
2018-08-20T01:43:04.874Z,60.57
2018-08-20T01:44:04.886Z,60.21
2018-08-20T01:45:04.888Z,59.51
2018-08-20T01:46:04.876Z,60.28
2018-08-20T01:47:04.882Z,60.86
2018-08-20T01:48:04.899Z,61.54
2018-08-20T01:50:25.928Z,62.08
2018-08-20T01:51:25.933Z,61.89
2018-08-20T01:52:25.996Z,62.18
2018-08-20T01:53:25.941Z,61.89
2018-08-20T01:54:25.938Z,61.80
2018-08-20T01:55:25.941Z,61.63
2018-08-20T01:56:25.936Z,60.76
2018-08-20T01:57:25.950Z,61.60
2018-08-20T01:58:25.947Z,60.96
2018-08-20T01:59:25.956Z,61.25
2018-08-20T02:00:25.963Z,61.60
2018-08-20T02:01:25.972Z,60.93
2018-08-20T02:02:25.983Z,61.44
2018-08-20T02:03:25.983Z,60.47
2018-08-20T02:04:25.979Z,60.38
2018-08-20T02:05:25.996Z,60.76
2018-08-20T02:06:25.991Z,60.86
2018-08-20T02:07:26.009Z,60.57
2018-08-20T02:08:26.012Z,60.47
2018-08-20T02:09:26.000Z,60.47
2018-08-20T02:10:26.041Z,61.51
2018-08-20T02:11:26.009Z,62.18
2018-08-20T02:12:26.007Z,62.18
2018-08-20T02:13:26.018Z,61.73
2018-08-20T02:14:26.018Z,61.51
2018-08-20T02:15:26.017Z,61.41
2018-08-20T02:16:26.048Z,61.80
2018-08-20T02:17:26.031Z,61.34
2018-08-20T02:18:26.036Z,60.86
2018-08-20T02:19:26.037Z,61.92
2018-08-20T02:20:26.043Z,61.89
2018-08-20T02:21:26.045Z,61.34
2018-08-20T02:22:26.045Z,61.15
2018-08-20T02:23:26.060Z,61.80
2018-08-20T02:24:26.059Z,62.37
2018-08-20T02:25:26.061Z,62.28
2018-08-20T02:26:26.066Z,62.73
2018-08-20T02:27:26.073Z,62.47
2018-08-20T02:28:26.101Z,61.99
2018-08-20T02:29:26.083Z,62.28
2018-08-20T02:30:26.089Z,62.76
2018-08-20T02:31:26.085Z,62.86
2018-08-20T02:32:26.117Z,62.18
2018-08-20T02:33:26.115Z,62.08
2018-08-20T02:34:26.129Z,62.18
2018-08-20T02:35:26.101Z,62.37
2018-08-20T02:36:26.138Z,61.99
2018-08-20T02:37:26.153Z,61.51
2018-08-20T02:38:26.116Z,61.89
2018-08-20T02:39:26.142Z,61.31
2018-08-20T02:40:26.133Z,62.57
2018-08-20T02:41:26.140Z,61.83
2018-08-20T02:42:26.159Z,61.99
2018-08-20T02:43:26.152Z,61.63
2018-08-20T02:44:26.162Z,61.63
2018-08-20T02:45:26.176Z,61.51
2018-08-20T02:46:26.190Z,62.63
2018-08-20T02:47:26.157Z,62.28
2018-08-20T02:48:26.182Z,62.66
2018-08-20T02:49:26.192Z,62.66
2018-08-20T02:50:26.184Z,63.98
2018-08-20T02:51:26.169Z,63.98
2018-08-20T02:52:26.194Z,63.15
2018-08-20T02:53:26.178Z,63.15
2018-08-20T02:54:26.205Z,63.53
2018-08-20T02:55:26.187Z,63.60
2018-08-20T03:14:10.496Z,65.20
2018-08-20T03:15:10.492Z,64.92
2018-08-20T03:16:10.512Z,64.76
2018-08-20T03:17:10.482Z,64.28
2018-08-20T03:18:10.513Z,64.37
2018-08-20T03:19:10.486Z,64.47
2018-08-20T03:20:10.499Z,64.18
2018-08-20T03:21:10.483Z,64.47
2018-08-20T03:22:10.508Z,64.18
2018-08-20T03:23:10.516Z,63.89
2018-08-20T03:24:10.537Z,64.28
2018-08-20T03:25:10.535Z,64.28
2018-08-20T03:26:10.494Z,64.43
2018-08-20T03:27:10.512Z,64.86
2018-08-20T03:28:10.532Z,65.01
2018-08-20T03:29:10.513Z,65.78
2018-08-20T03:30:10.532Z,65.01
2018-08-20T03:31:10.512Z,64.82
2018-08-20T03:32:10.561Z,65.78
2018-08-20T03:33:10.547Z,65.50
2018-08-20T03:34:10.528Z,66.08
2018-08-20T03:35:10.525Z,66.17
2018-08-20T03:36:10.600Z,65.01
2018-08-20T03:37:10.560Z,65.59
2018-08-20T03:38:10.572Z,65.50
2018-08-20T03:39:10.538Z,65.01
2018-08-20T03:40:10.564Z,65.50
2018-08-20T03:41:10.546Z,65.69
2018-08-20T03:42:10.547Z,65.40
2018-08-20T03:43:10.563Z,66.24
2018-08-20T03:44:10.555Z,66.33
2018-08-20T03:45:10.574Z,67.10
2018-08-20T03:46:10.570Z,66.17
2018-08-20T03:47:10.620Z,65.69
2018-08-20T03:48:10.592Z,65.40
2018-08-20T03:49:10.575Z,66.24
2018-08-20T03:50:10.599Z,65.69
2018-08-20T03:51:10.608Z,65.40
2018-08-20T03:52:10.590Z,66.43
2018-08-20T03:53:10.671Z,65.78
2018-08-20T03:54:10.612Z,65.50
2018-08-20T03:55:10.648Z,65.69
2018-08-20T03:56:10.635Z,65.01
2018-08-20T03:57:10.609Z,64.72
2018-08-20T03:58:10.604Z,65.98
2018-08-20T03:59:10.628Z,65.59
2018-08-20T04:00:10.620Z,66.17
2018-08-20T04:01:10.647Z,66.08
2018-08-20T04:02:10.698Z,65.59
2018-08-20T04:03:10.663Z,65.59
2018-08-20T04:04:10.657Z,65.88
2018-08-20T04:05:10.685Z,66.27
2018-08-20T04:06:10.659Z,66.27
2018-08-20T04:07:10.690Z,66.85
2018-08-20T04:08:10.688Z,66.66
2018-08-20T04:09:10.727Z,66.56
2018-08-20T04:10:10.673Z,66.72
2018-08-20T04:11:10.738Z,66.85
2018-08-20T04:12:10.691Z,66.62
2018-08-20T04:13:10.698Z,66.62
2018-08-20T04:14:10.695Z,66.56
2018-08-20T04:15:10.706Z,66.43
2018-08-20T04:16:10.674Z,66.75
2018-08-20T04:17:10.690Z,66.52
2018-08-20T04:18:10.729Z,66.62
2018-08-20T04:19:10.678Z,67.10
2018-08-20T04:20:10.734Z,66.62
2018-08-20T04:21:10.744Z,66.62
2018-08-20T04:22:10.719Z,66.85
2018-08-20T04:23:10.815Z,66.82
2018-08-20T04:24:10.716Z,67.10
2018-08-20T04:25:10.736Z,67.49
2018-08-20T04:26:10.696Z,66.75
2018-08-20T04:27:10.781Z,66.85
2018-08-20T04:28:10.741Z,66.82
2018-08-20T04:29:10.719Z,67.97
2018-08-20T04:30:10.766Z,67.88
2018-08-20T04:31:10.761Z,66.94
2018-08-20T04:32:10.776Z,66.66
2018-08-20T04:33:10.728Z,66.36
2018-08-20T04:34:10.785Z,66.27
2018-08-20T04:35:10.760Z,66.17
2018-08-20T04:36:10.762Z,65.63
2018-08-20T04:37:10.777Z,66.36
2018-08-20T04:38:10.808Z,66.08
2018-08-20T04:39:10.813Z,66.11
2018-08-20T04:40:10.778Z,66.46
2018-08-20T04:41:10.772Z,66.66
2018-08-20T04:42:10.809Z,67.04
2018-08-20T04:43:10.816Z,66.17
2018-08-20T04:44:10.818Z,66.56
2018-08-20T04:45:10.813Z,66.27
2018-08-20T04:46:10.823Z,66.27
2018-08-20T04:47:10.804Z,66.27
2018-08-20T04:48:10.856Z,66.66
2018-08-20T04:49:10.857Z,66.36
2018-08-20T04:50:10.930Z,66.85
2018-08-20T04:51:11.003Z,66.30
2018-08-20T04:52:10.791Z,66.20
2018-08-20T04:53:10.827Z,66.01
2018-08-20T04:54:10.844Z,66.85
2018-08-20T04:55:10.860Z,66.17
2018-08-20T04:56:10.834Z,66.20
2018-08-20T04:57:10.873Z,66.30
2018-08-20T04:58:10.827Z,65.72
2018-08-20T04:59:10.834Z,65.14
2018-08-20T05:00:10.824Z,65.24
2018-08-20T05:01:10.840Z,65.63
2018-08-20T05:02:10.903Z,66.20
2018-08-20T05:03:10.835Z,64.86
2018-08-20T05:04:10.911Z,64.66
2018-08-20T05:05:10.881Z,64.59
2018-08-20T05:06:10.856Z,65.05
2018-08-20T05:07:10.891Z,64.95
2018-08-20T05:08:10.923Z,64.86
2018-08-20T05:09:10.954Z,65.14
2018-08-20T05:10:10.986Z,64.47
2018-08-20T05:11:10.890Z,64.59
2018-08-20T05:12:10.903Z,64.40
2018-08-20T05:13:10.888Z,63.85
2018-08-20T05:14:10.897Z,64.05
2018-08-20T05:15:10.924Z,63.95
2018-08-20T05:16:10.906Z,63.18
2018-08-20T05:17:10.918Z,62.73
2018-08-20T05:18:10.956Z,61.57
2018-08-20T05:19:10.954Z,60.44
2018-08-20T05:20:10.997Z,60.72
2018-08-20T05:21:10.938Z,60.37
2018-08-20T05:22:10.975Z,59.21
2018-08-20T05:23:10.965Z,58.92
2018-08-20T05:24:10.971Z,59.01
2018-08-20T05:25:10.972Z,58.95
2018-08-20T05:26:11.030Z,57.59
2018-08-20T05:27:11.029Z,57.62
2018-08-20T05:28:10.997Z,57.33
2018-08-20T05:29:11.029Z,57.33
2018-08-20T05:30:11.092Z,56.87
2018-08-20T05:31:11.028Z,55.71
2018-08-20T05:32:11.050Z,56.59
2018-08-20T05:33:11.050Z,56.49
2018-08-20T05:34:11.060Z,56.39
2018-08-20T05:35:11.060Z,56.29
2018-08-20T05:36:11.092Z,55.22
2018-08-20T05:37:11.133Z,56.20
2018-08-20T05:38:11.115Z,56.39
2018-08-20T05:39:11.098Z,56.77
2018-08-20T05:40:11.134Z,58.01
2018-08-20T05:41:11.167Z,57.62
2018-08-20T05:42:11.145Z,57.81
2018-08-20T05:43:11.142Z,57.33
2018-08-20T05:44:11.132Z,56.65
2018-08-20T05:45:11.201Z,56.77
2018-08-20T05:46:11.235Z,55.90
2018-08-20T05:47:11.169Z,54.77
2018-08-20T05:48:11.208Z,55.06
2018-08-20T05:49:11.219Z,55.35
2018-08-20T05:50:11.228Z,55.44
2018-08-20T05:51:11.207Z,55.06
2018-08-20T05:52:11.301Z,55.52
2018-08-20T05:53:11.254Z,55.81
2018-08-20T05:54:11.257Z,56.39
2018-08-20T05:55:11.292Z,55.35
2018-08-20T05:56:11.287Z,56.10
2018-08-20T05:57:11.321Z,55.90
2018-08-20T05:58:11.275Z,55.35
2018-08-20T05:59:11.356Z,54.48
2018-08-20T06:00:11.289Z,54.96
2018-08-20T06:01:11.311Z,54.19
2018-08-20T06:02:13.103Z,54.58
2018-08-20T06:03:11.347Z,54.28
2018-08-20T06:04:11.335Z,54.11
2018-08-20T06:05:11.372Z,54.02
2018-08-20T06:06:11.360Z,54.60
2018-08-20T06:07:11.409Z,53.47
2018-08-20T06:08:11.439Z,52.91
2018-08-20T06:09:11.443Z,52.62
2018-08-20T06:10:11.442Z,52.72
2018-08-20T06:11:11.486Z,52.33
2018-08-20T06:12:11.433Z,51.84
2018-08-20T06:13:11.470Z,52.03
2018-08-20T06:14:11.501Z,52.72
2018-08-20T06:15:11.518Z,52.03
2018-08-20T06:16:11.539Z,51.65
2018-08-20T06:17:11.538Z,51.55
2018-08-20T06:18:11.556Z,51.75
2018-08-20T06:19:11.525Z,52.23
2018-08-20T06:20:11.580Z,52.91
2018-08-20T06:21:11.575Z,52.52
2018-08-20T06:22:11.581Z,52.23
2018-08-20T06:23:11.593Z,52.50
2018-08-20T06:24:11.745Z,52.98
2018-08-20T06:25:11.676Z,53.15
2018-08-20T06:26:11.593Z,53.73
2018-08-20T06:27:11.665Z,54.21
2018-08-20T06:28:11.636Z,55.06
2018-08-20T06:29:11.789Z,55.13
2018-08-20T06:30:11.664Z,56.29
2018-08-20T06:31:11.785Z,56.49
2018-08-20T06:32:11.749Z,56.59
2018-08-20T06:33:11.693Z,57.36
2018-08-20T06:34:11.765Z,57.17
2018-08-20T06:35:11.696Z,57.26
2018-08-20T06:36:11.723Z,57.43
2018-08-20T06:37:11.733Z,57.71
2018-08-20T06:38:11.719Z,58.39
2018-08-20T06:39:11.719Z,58.49
2018-08-20T06:40:11.748Z,58.20
2018-08-20T06:41:11.769Z,58.47
2018-08-20T06:42:11.750Z,58.47
2018-08-20T06:43:11.760Z,58.95
2018-08-20T06:44:11.767Z,58.85
2018-08-20T06:45:11.780Z,58.95
2018-08-20T06:46:11.816Z,59.14
2018-08-20T06:47:11.800Z,59.53
2018-08-20T06:48:11.807Z,59.23
2018-08-20T06:49:11.841Z,59.05
2018-08-20T06:50:11.847Z,59.53
2018-08-20T06:51:11.841Z,59.98
2018-08-20T06:52:11.838Z,60.47
2018-08-20T06:53:11.840Z,59.63
2018-08-20T06:54:11.834Z,59.72
2018-08-20T06:55:11.848Z,59.89
2018-08-20T06:56:11.853Z,59.50
2018-08-20T06:57:11.869Z,59.69
2018-08-20T06:58:11.863Z,59.59
2018-08-20T06:59:11.868Z,59.98
2018-08-20T07:00:11.898Z,59.72
2018-08-20T07:01:11.904Z,59.69
2018-08-20T07:02:11.891Z,59.53
2018-08-20T07:03:11.932Z,59.98
2018-08-20T07:04:11.912Z,59.50
2018-08-20T07:05:11.916Z,59.59
2018-08-20T07:06:11.925Z,60.37
2018-08-20T07:07:11.943Z,60.47
2018-08-20T07:08:11.948Z,60.37
2018-08-20T07:09:11.933Z,60.47
2018-08-20T07:10:11.961Z,60.27
2018-08-20T07:11:11.967Z,60.37
2018-08-20T07:12:11.953Z,60.66
2018-08-20T07:13:11.963Z,60.27
2018-08-20T07:14:11.965Z,60.17
2018-08-20T07:15:11.977Z,60.27
2018-08-20T07:16:11.976Z,60.17
2018-08-20T07:17:11.985Z,60.17
2018-08-20T07:18:12.038Z,60.66
2018-08-20T07:19:11.994Z,60.95
2018-08-20T07:20:12.020Z,61.24
2018-08-20T07:21:12.012Z,60.75
2018-08-20T07:22:12.017Z,61.24
2018-08-20T07:23:12.029Z,60.95
2018-08-20T07:24:12.032Z,61.15
2018-08-20T07:25:12.038Z,60.66
2018-08-20T07:26:12.043Z,60.75
2018-08-20T07:27:12.068Z,60.57
2018-08-20T07:28:12.055Z,60.95
2018-08-20T07:29:12.058Z,61.05
2018-08-20T07:30:12.066Z,61.05
2018-08-20T07:31:12.067Z,60.66
2018-08-20T07:32:12.093Z,60.95
2018-08-20T07:33:12.115Z,61.53
2018-08-20T07:34:12.090Z,61.15
2018-08-20T07:35:12.120Z,61.72
2018-08-20T07:36:12.179Z,61.72
2018-08-20T07:37:12.109Z,61.72
2018-08-20T07:38:12.614Z,61.24
2018-08-20T07:39:12.189Z,61.63
2018-08-20T07:40:12.164Z,61.43
2018-08-20T07:41:12.371Z,61.72
2018-08-20T07:42:12.134Z,62.40
2018-08-20T07:43:12.232Z,62.01
2018-08-20T07:44:12.188Z,62.01
2018-08-20T07:45:12.151Z,61.72
2018-08-20T07:46:12.183Z,62.40
2018-08-20T07:47:12.229Z,61.92
2018-08-20T07:48:12.191Z,62.30
2018-08-20T07:49:12.175Z,62.11
2018-08-20T07:50:20.882Z,62.01
2018-08-20T07:52:05.622Z,61.24
2018-08-20T07:53:05.595Z,61.92
2018-08-20T07:54:05.602Z,61.33
2018-08-20T07:55:05.606Z,61.63
2018-08-20T07:56:05.630Z,61.63
2018-08-20T07:57:14.271Z,61.92
2018-08-20T07:58:59.045Z,62.01
2018-08-20T07:59:59.027Z,61.95
2018-08-20T08:00:59.036Z,62.01
2018-08-20T08:01:59.049Z,62.01
2018-08-20T08:02:59.046Z,62.01
2018-08-20T08:03:59.078Z,62.01
2018-08-20T08:04:59.055Z,62.11
2018-08-20T08:05:59.078Z,61.85
2018-08-20T08:06:59.064Z,62.04
2018-08-20T08:07:59.086Z,61.76
2018-08-20T08:08:59.093Z,61.95
2018-08-20T08:09:59.106Z,61.85
2018-08-20T08:10:59.092Z,61.66
2018-08-20T08:11:59.106Z,61.36
2018-08-20T08:12:59.107Z,62.24
2018-08-20T08:13:59.106Z,62.04
2018-08-20T08:14:59.112Z,62.04
2018-08-20T08:15:59.117Z,61.66
2018-08-20T08:16:59.119Z,61.76
2018-08-20T08:17:59.134Z,62.04
2018-08-20T08:18:59.130Z,61.56
2018-08-20T08:19:59.154Z,61.56
2018-08-20T08:20:59.149Z,61.27
2018-08-20T08:21:59.145Z,61.56
2018-08-20T08:22:59.161Z,61.76
2018-08-20T08:23:59.193Z,61.56
2018-08-20T08:24:59.177Z,62.14
2018-08-20T08:25:59.175Z,62.14
2018-08-20T08:26:59.221Z,62.53
2018-08-20T08:27:59.186Z,62.43
2018-08-20T08:28:59.194Z,61.95
2018-08-20T08:29:59.202Z,62.04
2018-08-20T08:30:59.210Z,62.04
2018-08-20T08:31:59.224Z,62.07
2018-08-20T08:32:59.214Z,62.14
2018-08-20T08:33:59.215Z,61.88
2018-08-20T08:34:59.224Z,62.07
2018-08-20T08:35:59.231Z,61.59
2018-08-20T08:36:59.247Z,62.17
2018-08-20T08:37:59.310Z,61.69
2018-08-20T08:38:59.255Z,61.59
2018-08-20T08:39:59.257Z,61.79
2018-08-20T08:40:59.284Z,62.17
2018-08-20T08:41:59.270Z,62.56
2018-08-20T08:42:59.277Z,62.46
2018-08-20T08:43:59.289Z,62.85
2018-08-20T08:44:59.288Z,62.85
2018-08-20T08:45:59.296Z,63.14
2018-08-20T08:46:59.295Z,62.85
2018-08-20T08:47:59.331Z,63.34
2018-08-20T08:48:59.331Z,63.43
2018-08-20T08:49:59.327Z,62.66
2018-08-20T08:50:59.374Z,63.34
2018-08-20T08:51:59.329Z,63.04
2018-08-20T08:52:59.333Z,63.04
2018-08-20T08:53:59.347Z,62.37
2018-08-20T08:54:59.348Z,62.37
2018-08-20T08:55:59.376Z,62.56
2018-08-20T08:56:59.356Z,62.66
2018-08-20T08:57:59.362Z,62.59
2018-08-20T08:58:59.375Z,62.66
2018-08-20T08:59:59.378Z,62.75
2018-08-20T09:00:59.392Z,63.62
2018-08-20T09:01:59.436Z,63.37
2018-08-20T09:02:59.399Z,62.46
2018-08-20T09:03:59.418Z,62.69
2018-08-20T09:04:59.410Z,62.69
2018-08-20T09:05:59.431Z,62.20
2018-08-20T09:06:59.427Z,62.10
2018-08-20T09:07:59.453Z,62.30
2018-08-20T09:08:59.436Z,62.30
2018-08-20T09:09:59.430Z,62.20
2018-08-20T09:10:59.445Z,62.40
2018-08-20T09:11:59.459Z,62.69
2018-08-20T09:12:59.476Z,62.49
2018-08-20T09:13:59.506Z,62.30
2018-08-20T09:14:59.479Z,62.69
2018-08-20T09:15:59.483Z,62.20
2018-08-20T09:16:59.557Z,62.40
2018-08-20T09:17:59.588Z,61.82
2018-08-20T09:18:59.542Z,62.20
2018-08-20T09:19:59.548Z,62.30
2018-08-20T09:20:59.518Z,62.04
2018-08-20T09:21:59.537Z,61.82
2018-08-20T09:22:59.536Z,62.59
2018-08-20T09:23:59.532Z,62.30
2018-08-20T09:24:59.595Z,62.69
2018-08-20T09:25:59.535Z,62.69
2018-08-20T09:26:59.549Z,62.69
2018-08-20T09:27:59.588Z,63.27
2018-08-20T09:28:59.589Z,63.92
2018-08-20T09:29:59.571Z,63.62
2018-08-20T09:30:59.584Z,63.72
2018-08-20T09:31:59.672Z,63.72
2018-08-20T09:32:59.581Z,63.53
2018-08-20T09:33:59.602Z,64.11
2018-08-20T09:34:59.612Z,63.85
2018-08-20T09:35:59.610Z,63.37
2018-08-20T09:36:59.641Z,62.79
2018-08-20T09:37:59.612Z,62.49
2018-08-20T09:38:59.623Z,62.62
2018-08-20T09:39:59.635Z,62.33
2018-08-20T09:40:59.644Z,62.52
2018-08-20T09:41:59.686Z,62.43
2018-08-20T09:42:59.651Z,62.33
2018-08-20T09:43:59.711Z,62.13
2018-08-20T09:44:59.685Z,62.04
2018-08-20T09:45:59.719Z,62.33
2018-08-20T09:46:59.730Z,61.46
2018-08-20T09:47:59.804Z,62.33
2018-08-20T09:48:59.745Z,62.23
2018-08-20T09:49:59.687Z,61.75
2018-08-20T09:50:59.707Z,62.13
2018-08-20T09:51:59.787Z,62.13
2018-08-20T09:52:59.929Z,62.13
2018-08-20T09:53:59.981Z,61.85
2018-08-20T09:54:59.729Z,62.43
2018-08-20T09:55:59.754Z,63.20
2018-08-20T09:56:59.731Z,62.52
2018-08-20T09:57:59.745Z,61.94
2018-08-20T09:58:59.818Z,62.43
2018-08-20T09:59:59.751Z,62.13
2018-08-20T10:02:00.354Z,62.52
2018-08-20T10:02:59.791Z,62.62
2018-08-20T10:03:59.783Z,62.13
2018-08-20T10:04:59.786Z,61.88
2018-08-20T10:05:59.799Z,61.85
2018-08-20T10:06:59.790Z,61.65
2018-08-20T10:07:59.813Z,61.85
2018-08-20T10:08:59.831Z,61.49
2018-08-20T10:09:59.829Z,61.19
2018-08-20T10:10:59.846Z,61.29
2018-08-20T10:11:59.853Z,61.07
2018-08-20T10:12:59.849Z,61.75
2018-08-20T10:13:59.845Z,60.91
2018-08-20T10:14:59.844Z,61.29
2018-08-20T10:15:59.870Z,61.49
2018-08-20T10:16:59.864Z,61.29
2018-08-20T10:17:59.876Z,61.10
2018-08-20T10:18:59.874Z,60.91
2018-08-20T10:19:59.876Z,61.10
2018-08-20T10:20:59.887Z,61.19
2018-08-20T10:21:59.892Z,61.55
2018-08-20T10:22:59.908Z,62.13
2018-08-20T10:23:59.909Z,62.13
2018-08-20T10:24:59.920Z,62.13
2018-08-20T10:25:59.926Z,62.13
2018-08-20T10:27:08.588Z,61.68
2018-08-20T10:28:53.358Z,61.10
2018-08-20T10:29:53.343Z,61.39
2018-08-20T10:30:53.354Z,60.81
2018-08-20T10:31:53.359Z,60.94
2018-08-20T10:32:53.362Z,61.00
2018-08-20T10:33:53.367Z,60.91
2018-08-20T10:34:53.389Z,60.45
2018-08-20T10:35:53.385Z,61.10
2018-08-20T10:36:53.391Z,62.16
2018-08-20T10:37:53.570Z,62.43
2018-08-20T10:38:53.406Z,61.98
2018-08-20T10:39:53.420Z,61.88
2018-08-20T10:40:53.422Z,61.13
2018-08-20T10:41:53.426Z,60.45
2018-08-20T10:42:53.436Z,59.87
2018-08-20T10:43:53.439Z,59.77
2018-08-20T10:44:53.444Z,60.16
2018-08-20T10:45:53.448Z,60.06
2018-08-20T10:46:53.458Z,59.80
2018-08-20T10:47:53.459Z,59.22
2018-08-20T10:48:53.468Z,58.90
2018-08-20T10:49:53.490Z,59.97
2018-08-20T10:50:53.482Z,59.97
2018-08-20T10:51:53.494Z,59.51
2018-08-20T10:52:53.493Z,59.67
2018-08-20T10:53:53.520Z,60.16
2018-08-20T10:54:53.510Z,59.61
2018-08-20T10:55:53.520Z,58.64
2018-08-20T10:56:53.524Z,58.54
2018-08-20T10:57:53.540Z,58.34
2018-08-20T10:58:53.541Z,58.44
2018-08-20T10:59:53.547Z,59.22
2018-08-20T11:00:53.552Z,59.38
2018-08-20T11:01:53.576Z,59.12
2018-08-20T11:02:53.566Z,59.22
2018-08-20T11:03:53.579Z,58.25
2018-08-20T11:04:53.588Z,58.54
2018-08-20T11:05:53.584Z,58.15
2018-08-20T11:06:53.602Z,58.15
2018-08-20T11:07:53.599Z,58.64
2018-08-20T11:08:53.611Z,58.34
2018-08-20T11:09:53.616Z,59.12
2018-08-20T11:10:53.687Z,59.22
2018-08-20T11:11:53.633Z,59.03
2018-08-20T11:12:53.647Z,59.12
2018-08-20T11:13:53.645Z,58.64
2018-08-20T11:14:53.653Z,58.64
2018-08-20T11:15:53.659Z,59.19
2018-08-20T11:16:53.666Z,59.51
2018-08-20T11:17:53.672Z,59.22
2018-08-20T11:18:53.765Z,59.41
2018-08-20T11:19:53.684Z,58.95
2018-08-20T11:20:53.697Z,58.15
2018-08-20T11:21:53.702Z,58.54
2018-08-20T11:22:53.720Z,58.47
2018-08-20T11:23:53.734Z,58.47
2018-08-20T11:24:53.731Z,57.89
2018-08-20T11:25:53.728Z,57.79
2018-08-20T11:26:53.785Z,57.40
2018-08-20T11:27:53.743Z,57.50
2018-08-20T11:28:53.749Z,57.89
2018-08-20T11:29:53.759Z,58.37
2018-08-20T11:30:53.778Z,58.73
2018-08-20T11:31:53.775Z,58.93
2018-08-20T11:32:53.784Z,58.08
2018-08-20T11:33:53.782Z,58.37
2018-08-20T11:34:53.792Z,58.57
2018-08-20T11:35:53.806Z,58.47
2018-08-20T11:36:53.808Z,58.28
2018-08-20T11:37:53.815Z,58.47
2018-08-20T11:38:53.824Z,58.64
2018-08-20T11:39:53.825Z,58.67
2018-08-20T11:40:53.850Z,58.76
2018-08-20T11:41:53.845Z,57.89
2018-08-20T11:42:53.846Z,57.40
2018-08-20T11:43:53.856Z,57.89
2018-08-20T11:44:53.867Z,58.28
2018-08-20T11:45:53.870Z,58.47
2018-08-20T11:46:53.885Z,57.60
2018-08-20T11:47:53.893Z,58.05
2018-08-20T11:48:53.895Z,58.34
2018-08-20T11:49:53.909Z,57.60
2018-08-20T11:50:53.910Z,57.40
2018-08-20T11:51:53.932Z,56.85
2018-08-20T11:52:53.921Z,56.26
2018-08-20T11:53:53.921Z,56.65
2018-08-20T11:54:53.940Z,56.56
2018-08-20T11:55:53.941Z,56.75
2018-08-20T11:56:53.945Z,57.72
2018-08-20T11:57:53.963Z,57.50
2018-08-20T11:58:53.980Z,57.43
2018-08-20T11:59:53.970Z,57.23
2018-08-20T12:00:53.978Z,56.95
2018-08-20T12:01:54.051Z,56.75
2018-08-20T12:02:53.993Z,56.39
2018-08-20T12:03:54.002Z,56.10
2018-08-20T12:04:54.005Z,56.26
2018-08-20T12:05:54.012Z,56.75
2018-08-20T12:06:54.036Z,56.56
2018-08-20T12:07:54.033Z,56.46
2018-08-20T12:08:54.038Z,56.56
2018-08-20T12:09:54.046Z,56.65
2018-08-20T12:10:54.054Z,55.90
2018-08-20T12:11:54.054Z,55.80
2018-08-20T12:12:54.066Z,55.61
2018-08-20T12:13:54.077Z,55.22
2018-08-20T12:14:54.080Z,55.32
2018-08-20T12:15:54.092Z,56.20
2018-08-20T12:16:54.096Z,55.51
2018-08-20T12:17:54.101Z,54.83
2018-08-20T12:18:54.116Z,54.64
2018-08-20T12:19:54.124Z,55.03
2018-08-20T12:20:54.137Z,55.32
2018-08-20T12:21:54.141Z,55.51
2018-08-20T12:22:54.144Z,55.41
2018-08-20T12:23:54.149Z,55.32
2018-08-20T12:24:54.161Z,55.80
2018-08-20T12:25:54.169Z,55.25
2018-08-20T12:26:54.173Z,55.03
2018-08-20T12:27:54.180Z,55.41
2018-08-20T12:28:54.188Z,55.51
2018-08-20T12:29:54.197Z,55.03
2018-08-20T12:30:54.208Z,55.13
2018-08-20T12:31:54.216Z,55.32
2018-08-20T12:32:54.221Z,55.35
2018-08-20T12:33:54.233Z,55.15
2018-08-20T12:34:54.238Z,55.25
2018-08-20T12:35:54.243Z,55.41
2018-08-20T12:36:54.252Z,55.22
2018-08-20T12:37:54.261Z,55.25
2018-08-20T12:38:54.272Z,54.47
2018-08-20T12:39:54.382Z,54.69
2018-08-20T12:40:54.292Z,54.21
2018-08-20T12:41:54.292Z,53.72
2018-08-20T12:42:54.299Z,53.81
2018-08-20T12:43:54.302Z,54.01
2018-08-20T12:44:54.310Z,53.33
2018-08-20T12:45:54.322Z,53.33
2018-08-20T12:46:54.328Z,53.91
2018-08-20T12:47:54.338Z,53.23
2018-08-20T12:48:54.346Z,53.79
2018-08-20T12:49:54.364Z,54.28
2018-08-20T12:50:54.375Z,54.66
2018-08-20T12:51:54.370Z,54.96
2018-08-20T12:52:54.417Z,54.35
2018-08-20T12:53:54.386Z,54.76
2018-08-20T12:54:54.392Z,54.47
2018-08-20T12:55:54.413Z,54.57
2018-08-20T12:56:54.411Z,54.18
2018-08-20T12:57:54.426Z,54.28
2018-08-20T12:58:54.436Z,53.91
2018-08-20T12:59:54.433Z,53.79
2018-08-20T13:00:54.459Z,53.59
2018-08-20T13:01:54.471Z,52.75
2018-08-20T13:02:54.459Z,52.84
2018-08-20T13:03:54.468Z,53.20
2018-08-20T13:04:54.474Z,53.59
2018-08-20T13:05:54.495Z,53.89
2018-08-20T13:06:54.490Z,53.01
2018-08-20T13:07:54.502Z,53.20
2018-08-20T13:08:54.594Z,53.20
2018-08-20T13:09:54.521Z,53.50
2018-08-20T13:10:54.528Z,53.20
2018-08-20T13:11:54.538Z,53.67
2018-08-20T13:12:54.549Z,54.83
2018-08-20T13:13:54.552Z,54.25
2018-08-20T13:14:54.560Z,54.74
2018-08-20T13:15:54.652Z,54.74